createdAt,value
2018-12-25T00:02:23.851Z,2.99
2018-12-25T00:05:13.398Z,3.07
2018-12-25T00:08:03.121Z,3.13
2018-12-25T00:10:52.811Z,3.00
2018-12-25T00:13:42.532Z,2.93
2018-12-25T00:16:32.533Z,2.91
2018-12-25T00:19:21.995Z,3.12
2018-12-25T00:22:11.698Z,3.18
2018-12-25T00:25:01.689Z,3.04
2018-12-25T00:27:51.451Z,2.88
2018-12-25T00:30:40.910Z,2.80
2018-12-25T00:33:30.758Z,2.84
2018-12-25T00:36:20.908Z,2.86
2018-12-25T00:39:10.649Z,2.89
2018-12-25T00:42:01.489Z,2.88
2018-12-25T00:44:51.193Z,2.95
2018-12-25T00:47:41.178Z,2.84
2018-12-25T00:50:30.997Z,2.96
2018-12-25T00:53:20.457Z,3.08
2018-12-25T00:56:10.516Z,3.08
2018-12-25T00:58:59.990Z,3.03
2018-12-25T01:01:50.476Z,3.14
2018-12-25T01:04:40.307Z,3.04
2018-12-25T01:07:30.248Z,2.92
2018-12-25T01:10:20.527Z,2.95
2018-12-25T01:13:09.979Z,2.96
2018-12-25T01:15:59.730Z,2.96
2018-12-25T01:18:49.503Z,2.85
2018-12-25T01:21:39.196Z,2.93
2018-12-25T01:24:28.934Z,2.84
2018-12-25T01:27:19.770Z,2.83
2018-12-25T01:30:09.443Z,2.74
2018-12-25T01:33:00.617Z,2.73
2018-12-25T01:35:50.616Z,2.85
2018-12-25T01:38:40.351Z,2.85
2018-12-25T01:41:29.852Z,2.83
2018-12-25T01:44:19.808Z,2.77
2018-12-25T01:47:09.328Z,2.66
2018-12-25T01:49:59.054Z,2.49
2018-12-25T01:52:48.537Z,2.44
2018-12-25T01:55:38.807Z,2.52
2018-12-25T01:58:28.262Z,2.50
2018-12-25T02:01:17.990Z,2.54
2018-12-25T02:04:08.152Z,2.52
2018-12-25T02:06:57.330Z,2.52
2018-12-25T02:09:46.816Z,2.47
2018-12-25T02:12:36.571Z,2.54
2018-12-25T02:15:26.375Z,2.50
2018-12-25T02:18:16.470Z,2.51
2018-12-25T02:21:06.252Z,2.32
2018-12-25T02:23:56.452Z,2.36
2018-12-25T02:26:46.419Z,2.22
2018-12-25T02:29:36.163Z,2.12
2018-12-25T02:32:25.914Z,2.13
2018-12-25T02:35:15.894Z,2.10
2018-12-25T02:38:05.358Z,2.07
2018-12-25T02:40:55.100Z,2.11
2018-12-25T02:43:44.643Z,2.14
2018-12-25T02:46:34.402Z,2.22
2018-12-25T02:49:24.145Z,2.15
2018-12-25T02:52:14.120Z,2.08
2018-12-25T02:55:04.157Z,2.20
2018-12-25T02:57:53.614Z,2.23
2018-12-25T03:00:43.348Z,2.27
2018-12-25T03:03:33.364Z,2.38
2018-12-25T03:06:23.406Z,2.45
2018-12-25T03:09:13.139Z,2.46
2018-12-25T03:12:02.948Z,2.56
2018-12-25T03:14:52.655Z,2.39
2018-12-25T03:17:42.139Z,2.38
2018-12-25T03:20:32.115Z,2.43
2018-12-25T03:23:21.874Z,2.27
2018-12-25T03:26:11.621Z,2.23
2018-12-25T03:29:02.146Z,2.04
2018-12-25T03:31:52.134Z,1.93
2018-12-25T03:34:41.827Z,1.85
2018-12-25T03:37:32.017Z,1.82
2018-12-25T03:40:21.576Z,1.91
2018-12-25T03:43:11.101Z,2.01
2018-12-25T03:46:00.566Z,2.04
2018-12-25T03:48:51.348Z,2.15
2018-12-25T03:51:40.910Z,2.27
2018-12-25T03:54:30.379Z,2.10
2018-12-25T03:57:20.072Z,2.09
2018-12-25T04:00:10.981Z,2.16
2018-12-25T04:03:00.519Z,2.15
2018-12-25T04:05:50.314Z,2.16
2018-12-25T04:08:40.461Z,2.13
2018-12-25T04:11:29.936Z,2.04
2018-12-25T04:14:20.752Z,2.12
2018-12-25T04:17:10.262Z,1.97
2018-12-25T04:20:00.386Z,1.94
2018-12-25T04:22:50.596Z,1.84
2018-12-25T04:25:40.336Z,1.90
2018-12-25T04:28:30.782Z,1.97
2018-12-25T04:31:20.787Z,1.84
2018-12-25T04:34:10.813Z,1.71
2018-12-25T04:37:00.596Z,1.76
2018-12-25T04:39:51.380Z,1.72
2018-12-25T04:42:41.575Z,1.76
2018-12-25T04:45:31.570Z,1.81
2018-12-25T04:48:21.513Z,1.89
2018-12-25T04:51:11.513Z,1.87
2018-12-25T04:54:00.953Z,1.82
2018-12-25T04:56:50.428Z,1.79
2018-12-25T04:59:39.959Z,1.87
2018-12-25T05:02:29.666Z,1.99
2018-12-25T05:05:20.125Z,2.12
2018-12-25T05:08:10.351Z,2.12
2018-12-25T05:11:00.702Z,2.16
2018-12-25T05:13:50.427Z,2.13
2018-12-25T05:16:40.249Z,2.00
2018-12-25T05:19:30.227Z,1.97
2018-12-25T05:22:19.938Z,2.02
2018-12-25T05:25:09.916Z,2.09
2018-12-25T05:27:59.988Z,2.26
2018-12-25T05:30:49.655Z,2.16
2018-12-25T05:33:39.727Z,2.07
2018-12-25T05:36:50.000Z,2.10
2018-12-25T05:39:40.204Z,2.08
2018-12-25T05:42:29.984Z,1.99
2018-12-25T05:45:19.718Z,1.97
2018-12-25T05:48:09.943Z,2.07
2018-12-25T05:51:00.168Z,2.02
2018-12-25T05:53:49.896Z,1.95
2018-12-25T05:56:40.240Z,1.82
2018-12-25T05:59:29.995Z,1.94
2018-12-25T06:02:19.791Z,1.86
2018-12-25T06:05:10.343Z,1.83
2018-12-25T06:08:00.621Z,1.80
2018-12-25T06:10:50.596Z,1.83
2018-12-25T06:13:40.343Z,1.97
2018-12-25T06:16:30.751Z,1.82
2018-12-25T06:19:20.667Z,1.73
2018-12-25T06:22:10.789Z,1.74
2018-12-25T06:25:00.749Z,1.79
2018-12-25T06:27:50.558Z,1.73
2018-12-25T06:30:40.761Z,1.83
2018-12-25T06:33:30.551Z,1.80
2018-12-25T06:36:20.346Z,1.79
2018-12-25T06:39:10.054Z,1.86
2018-12-25T06:41:59.808Z,1.79
2018-12-25T06:44:49.518Z,1.76
2018-12-25T06:47:39.263Z,1.75
2018-12-25T06:50:29.317Z,1.79
2018-12-25T06:53:19.037Z,1.72
2018-12-25T06:56:09.630Z,1.61
2018-12-25T06:58:59.103Z,1.70
2018-12-25T07:01:48.825Z,1.82
2018-12-25T07:04:38.830Z,1.66
2018-12-25T07:07:28.782Z,1.65
2018-12-25T07:10:18.769Z,1.65
2018-12-25T07:13:08.625Z,1.67
2018-12-25T07:15:58.092Z,1.51
2018-12-25T07:18:47.588Z,1.57
2018-12-25T07:21:37.848Z,1.66
2018-12-25T07:24:27.337Z,1.63
2018-12-25T07:27:17.285Z,1.63
2018-12-25T07:30:07.519Z,1.64
2018-12-25T07:32:57.724Z,1.67
2018-12-25T07:35:47.754Z,1.64
2018-12-25T07:38:37.478Z,1.70
2018-12-25T07:41:28.080Z,1.78
2018-12-25T07:44:17.576Z,1.75
2018-12-25T07:47:07.049Z,1.79
2018-12-25T07:49:57.059Z,1.86
2018-12-25T07:52:47.761Z,2.08
2018-12-25T07:55:37.481Z,2.13
2018-12-25T07:58:28.119Z,2.11
2018-12-25T08:01:17.592Z,2.04
2018-12-25T08:04:07.359Z,2.06
2018-12-25T08:06:56.842Z,2.15
2018-12-25T08:09:46.315Z,2.14
2018-12-25T08:12:36.055Z,2.16
2018-12-25T08:15:25.774Z,2.18
2018-12-25T08:18:15.887Z,2.07
2018-12-25T08:21:05.839Z,2.19
2018-12-25T08:23:55.841Z,2.09
2018-12-25T08:26:45.684Z,2.02
2018-12-25T08:29:35.410Z,2.14
2018-12-25T08:32:25.381Z,2.15
2018-12-25T08:35:15.288Z,2.13
2018-12-25T08:38:05.612Z,2.15
2018-12-25T08:40:55.543Z,2.18
2018-12-25T08:43:45.271Z,2.31
2018-12-25T08:46:35.213Z,2.12
2018-12-25T08:49:25.057Z,2.19
2018-12-25T08:52:14.787Z,2.26
2018-12-25T08:55:04.810Z,2.30
2018-12-25T08:57:55.420Z,2.30
2018-12-25T09:00:44.911Z,2.29
2018-12-25T09:03:35.547Z,2.32
2018-12-25T09:06:25.786Z,2.44
2018-12-25T09:09:15.778Z,2.52
2018-12-25T09:12:05.335Z,2.43
2018-12-25T09:14:56.726Z,2.35
2018-12-25T09:17:46.431Z,2.41
2018-12-25T09:20:35.973Z,2.45
2018-12-25T09:23:26.704Z,2.56
2018-12-25T09:26:17.004Z,2.40
2018-12-25T09:29:06.750Z,2.40
2018-12-25T09:31:57.227Z,2.39
2018-12-25T09:34:48.086Z,2.49
2018-12-25T09:37:38.501Z,2.68
2018-12-25T09:40:28.523Z,2.72
2018-12-25T09:43:19.106Z,2.62
2018-12-25T09:46:08.857Z,2.55
2018-12-25T09:48:59.200Z,2.56
2018-12-25T09:51:54.494Z,2.60
2018-12-25T09:54:41.080Z,2.63
2018-12-25T09:57:31.568Z,2.58
2018-12-25T10:00:21.431Z,2.50
2018-12-25T10:03:11.016Z,2.56
2018-12-25T10:06:01.128Z,2.59
2018-12-25T10:08:50.848Z,2.59
2018-12-25T10:11:44.509Z,2.58
2018-12-25T10:14:32.588Z,2.47
2018-12-25T10:17:22.128Z,2.34
2018-12-25T10:20:12.058Z,2.49
2018-12-25T10:23:01.874Z,2.51
2018-12-25T10:25:51.629Z,2.63
2018-12-25T10:28:41.740Z,2.52
2018-12-25T10:31:31.202Z,2.66
2018-12-25T10:34:21.099Z,2.91
2018-12-25T10:37:10.587Z,3.04
2018-12-25T10:40:00.332Z,2.72
2018-12-25T10:42:49.802Z,2.67
2018-12-25T10:45:40.084Z,2.97
2018-12-25T10:48:29.670Z,3.21
2018-12-25T10:51:19.199Z,3.31
2018-12-25T10:54:08.907Z,3.24
2018-12-25T10:56:58.783Z,3.50
2018-12-25T10:59:48.586Z,3.44
2018-12-25T11:02:38.341Z,3.53
2018-12-25T11:05:28.278Z,3.48
2018-12-25T11:08:17.988Z,3.38
2018-12-25T11:11:07.988Z,3.39
2018-12-25T11:13:57.699Z,3.05
2018-12-25T11:16:47.639Z,3.16
2018-12-25T11:19:37.618Z,3.36
2018-12-25T11:22:27.131Z,3.28
2018-12-25T11:25:16.594Z,3.23
2018-12-25T11:28:06.327Z,2.94
2018-12-25T11:30:56.295Z,2.87
2018-12-25T11:33:45.764Z,2.91
2018-12-25T11:36:47.818Z,2.91
2018-12-25T11:39:37.545Z,2.91
2018-12-25T11:42:27.262Z,2.71
2018-12-25T11:45:16.724Z,2.71
2018-12-25T11:48:06.188Z,2.78
2018-12-25T11:50:55.913Z,2.81
2018-12-25T11:53:46.404Z,2.84
2018-12-25T11:56:36.359Z,2.92
2018-12-25T11:59:26.306Z,2.89
2018-12-25T12:02:17.124Z,2.86
2018-12-25T12:05:07.492Z,2.86
2018-12-25T12:07:57.422Z,3.02
2018-12-25T12:10:47.200Z,3.03
2018-12-25T12:13:37.159Z,2.88
2018-12-25T12:16:26.885Z,2.83
2018-12-25T12:19:16.674Z,2.85
2018-12-25T12:22:06.661Z,3.02
2018-12-25T12:24:55.485Z,3.07
2018-12-25T12:27:44.979Z,3.11
2018-12-25T12:30:34.700Z,3.28
2018-12-25T12:33:24.171Z,3.42
2018-12-25T12:36:14.119Z,3.44
2018-12-25T12:42:33.069Z,3.49
2018-12-25T12:45:22.785Z,3.28
2018-12-25T12:48:12.531Z,3.18
2018-12-25T12:51:02.385Z,3.27
2018-12-25T12:53:52.414Z,3.39
2018-12-25T12:56:41.889Z,3.30
2018-12-25T12:59:31.724Z,3.30
2018-12-25T13:02:21.431Z,3.28
2018-12-25T13:05:11.645Z,3.22
2018-12-25T13:08:02.245Z,3.13
2018-12-25T13:10:51.987Z,3.13
2018-12-25T13:13:41.704Z,3.27
2018-12-25T13:16:50.388Z,3.34
2018-12-25T13:19:40.136Z,3.26
2018-12-25T13:22:29.604Z,3.03
2018-12-25T13:25:19.669Z,2.99
2018-12-25T13:28:09.994Z,3.12
2018-12-25T13:31:00.228Z,3.20
2018-12-25T13:33:49.963Z,3.21
2018-12-25T13:36:39.459Z,3.09
2018-12-25T13:39:50.111Z,3.09
2018-12-25T13:42:39.657Z,3.06
2018-12-25T13:45:29.908Z,3.06
2018-12-25T13:48:19.668Z,2.86
2018-12-25T13:51:09.385Z,2.81
2018-12-25T13:53:59.122Z,2.61
2018-12-25T13:56:48.644Z,2.71
2018-12-25T13:59:38.427Z,2.59
2018-12-25T14:02:28.477Z,2.60
2018-12-25T14:05:18.283Z,2.69
2018-12-25T14:08:08.089Z,2.62
2018-12-25T14:10:57.832Z,2.79
2018-12-25T14:13:47.630Z,2.93
2018-12-25T14:16:37.846Z,2.94
2018-12-25T14:19:27.861Z,2.93
2018-12-25T14:22:17.410Z,2.86
2018-12-25T14:25:07.648Z,2.78
2018-12-25T14:28:15.937Z,2.83
2018-12-25T14:31:05.718Z,2.77
2018-12-25T14:33:55.525Z,2.73
2018-12-25T14:40:17.575Z,2.80
2018-12-25T14:46:23.947Z,2.64
2018-12-25T14:49:14.005Z,2.73
2018-12-25T14:52:04.616Z,2.78
2018-12-25T14:54:56.230Z,2.64
2018-12-25T14:57:45.878Z,2.47
2018-12-25T15:00:36.797Z,2.44
2018-12-25T15:03:47.200Z,2.44
2018-12-25T15:06:37.382Z,2.43
2018-12-25T15:09:28.517Z,2.57
2018-12-25T15:12:18.638Z,2.42
2018-12-25T15:15:08.975Z,2.28
2018-12-25T15:21:10.372Z,2.26
2018-12-25T15:24:00.513Z,2.17
2018-12-25T15:26:50.710Z,2.06
2018-12-25T15:29:41.189Z,2.04
2018-12-25T15:32:30.792Z,1.99
2018-12-25T15:35:20.482Z,1.95
2018-12-25T15:38:10.774Z,1.85
2018-12-25T15:41:00.586Z,1.77
2018-12-25T15:43:50.360Z,1.75
2018-12-25T15:46:40.547Z,1.67
2018-12-25T15:49:30.294Z,1.64
2018-12-25T15:52:19.959Z,1.55
2018-12-25T15:55:10.292Z,1.50
2018-12-25T15:58:00.458Z,1.49
2018-12-25T16:00:50.933Z,1.43
2018-12-25T16:03:40.986Z,1.32
2018-12-25T16:06:34.388Z,1.24
2018-12-25T16:09:22.695Z,1.20
2018-12-25T16:12:12.982Z,1.09
2018-12-25T16:15:02.739Z,1.00
2018-12-25T16:17:52.561Z,0.90
2018-12-25T16:20:42.040Z,0.77
2018-12-25T16:23:32.544Z,0.73
2018-12-25T16:26:22.808Z,0.80
2018-12-25T16:29:12.783Z,0.77
2018-12-25T16:32:22.059Z,0.83
2018-12-25T16:35:11.775Z,0.83
2018-12-25T16:38:01.989Z,0.77
2018-12-25T16:40:51.715Z,0.78
2018-12-25T16:43:41.165Z,0.78
2018-12-25T16:46:30.735Z,0.75
2018-12-25T16:49:20.217Z,0.75
2018-12-25T16:52:09.765Z,0.67
2018-12-25T16:54:59.509Z,0.67
2018-12-25T16:57:49.251Z,0.60
2018-12-25T17:00:39.459Z,0.55
2018-12-25T17:03:29.661Z,0.43
2018-12-25T17:06:20.433Z,0.24
2018-12-25T17:09:29.587Z,0.28
2018-12-25T17:12:19.559Z,0.28
2018-12-25T17:15:09.336Z,0.13
2018-12-25T17:17:59.036Z,0.13
2018-12-25T17:20:48.819Z,0.04
2018-12-25T17:24:02.141Z,0.04
2018-12-25T17:26:49.041Z,0.04
2018-12-25T17:29:39.308Z,-0.11
2018-12-25T17:32:29.035Z,-0.09
2018-12-25T17:35:38.405Z,-0.22
2018-12-25T17:38:28.880Z,-0.28
2018-12-25T17:41:18.363Z,-0.28
2018-12-25T17:44:27.290Z,-0.21
2018-12-25T17:47:17.058Z,-0.21
2018-12-25T17:50:06.980Z,-0.18
2018-12-25T17:52:56.714Z,-0.11
2018-12-25T17:55:46.769Z,-0.01
2018-12-25T17:58:55.720Z,-0.13
2018-12-25T18:01:45.481Z,-0.13
2018-12-25T18:04:54.144Z,-0.25
2018-12-25T18:07:44.248Z,-0.25
2018-12-25T18:10:34.308Z,-0.32
2018-12-25T18:13:24.328Z,-0.28
2018-12-25T18:16:13.809Z,-0.31
2018-12-25T18:19:03.837Z,-0.41
2018-12-25T18:21:53.819Z,-0.39
2018-12-25T18:25:02.563Z,-0.38
2018-12-25T18:27:52.547Z,-0.38
2018-12-25T18:30:42.563Z,-0.29
2018-12-25T18:33:32.328Z,-0.27
2018-12-25T18:36:22.402Z,-0.27
2018-12-25T18:39:12.228Z,-0.26
2018-12-25T18:42:02.975Z,-0.34
2018-12-25T18:44:52.788Z,-0.34
2018-12-25T18:48:01.746Z,-0.43
2018-12-25T18:50:51.479Z,-0.43
2018-12-25T18:54:01.232Z,-0.58
2018-12-25T18:56:51.319Z,-0.53
2018-12-25T18:59:40.813Z,-0.53
2018-12-25T19:02:49.765Z,-0.52
2018-12-25T19:05:39.215Z,-0.52
2018-12-25T19:08:47.910Z,-0.69
2018-12-25T19:11:37.669Z,-0.61
2018-12-25T19:14:50.074Z,-0.66
2018-12-25T19:17:39.810Z,-0.66
2018-12-25T19:20:29.630Z,-0.67
2018-12-25T19:23:19.920Z,-0.69
2018-12-25T19:29:58.000Z,-0.86
2018-12-25T19:32:59.832Z,-0.87
2018-12-25T19:35:49.843Z,-0.83
2018-12-25T19:38:39.855Z,-0.83
2018-12-25T19:41:29.761Z,-0.86
2018-12-25T19:44:19.408Z,-0.81
2018-12-25T19:47:09.487Z,-0.81
2018-12-25T19:50:18.277Z,-0.81
2018-12-25T19:53:09.113Z,-0.81
2018-12-25T19:55:58.982Z,-0.75
2018-12-25T19:59:07.771Z,-0.66
2018-12-25T20:02:16.782Z,-0.67
2018-12-25T20:05:44.592Z,-0.67
2018-12-25T20:09:12.406Z,-0.84
2018-12-25T20:12:37.617Z,-0.84
2018-12-25T20:16:05.400Z,-0.81
2018-12-25T20:19:34.169Z,-0.81
2018-12-25T20:22:48.146Z,-0.81
2018-12-25T20:26:03.618Z,-0.76
2018-12-25T20:29:31.451Z,-0.84
2018-12-25T20:32:32.497Z,-0.86
2018-12-25T20:36:00.344Z,-0.86
2018-12-25T20:39:28.161Z,-0.84
2018-12-25T20:46:52.933Z,-1.17
2018-12-25T20:50:20.739Z,-1.23
2018-12-25T20:53:48.579Z,-1.23
2018-12-25T20:57:16.395Z,-1.11
2018-12-25T21:00:44.247Z,-1.11
2018-12-25T21:04:12.074Z,-1.21
2018-12-25T21:07:40.164Z,-1.21
2018-12-25T21:11:07.986Z,-1.22
2018-12-25T21:14:35.799Z,-1.39
2018-12-25T21:18:05.853Z,-1.40
2018-12-25T21:21:41.578Z,-1.40
2018-12-25T21:25:10.125Z,-1.40
2018-12-25T21:28:18.143Z,-1.44
2018-12-25T21:34:25.922Z,-1.53
2018-12-25T21:37:18.462Z,-1.53
2018-12-25T21:40:09.007Z,-1.49
2018-12-25T21:42:59.586Z,-1.47
2018-12-25T21:45:49.703Z,-1.60
2018-12-25T21:48:39.352Z,-1.62
2018-12-25T21:51:31.083Z,-1.62
2018-12-25T21:54:39.851Z,-1.68
2018-12-25T21:57:50.013Z,-1.68
2018-12-25T22:00:39.957Z,-1.57
2018-12-25T22:03:49.395Z,-1.57
2018-12-25T22:06:58.085Z,-1.45
2018-12-25T22:10:07.746Z,-1.48
2018-12-25T22:13:16.792Z,-1.45
2018-12-25T22:16:07.069Z,-1.45
2018-12-25T22:18:57.229Z,-1.44
2018-12-25T22:22:07.185Z,-1.67
2018-12-25T22:24:58.191Z,-1.54
2018-12-25T22:28:06.875Z,-1.54
2018-12-25T22:30:57.695Z,-1.54
2018-12-25T22:34:07.468Z,-1.55
2018-12-25T22:37:00.366Z,-1.51
2018-12-25T22:39:50.399Z,-1.50
2018-12-25T22:42:40.451Z,-1.56
2018-12-25T22:45:30.616Z,-1.54
2018-12-25T22:48:38.282Z,-1.54
2018-12-25T22:51:47.045Z,-1.34
2018-12-25T22:54:36.677Z,-1.36
2018-12-25T22:57:26.782Z,-1.36
2018-12-25T23:00:35.619Z,-1.31
2018-12-25T23:03:27.514Z,-1.31
2018-12-25T23:06:17.232Z,-1.33
2018-12-25T23:09:07.689Z,-1.37
2018-12-25T23:12:16.744Z,-1.35
2018-12-25T23:15:15.549Z,-1.35
2018-12-25T23:18:05.489Z,-1.40
2018-12-25T23:20:55.733Z,-1.54
2018-12-25T23:23:57.838Z,-1.59
2018-12-25T23:26:37.364Z,-1.64
2018-12-25T23:29:27.251Z,-1.64
2018-12-25T23:32:16.890Z,-1.73
2018-12-25T23:35:06.773Z,-1.75
2018-12-25T23:37:56.522Z,-1.91
2018-12-25T23:40:46.138Z,-1.96
2018-12-25T23:43:35.968Z,-1.96
2018-12-25T23:46:25.786Z,-2.06
2018-12-25T23:49:15.756Z,-2.08
2018-12-25T23:52:05.296Z,-2.11
2018-12-25T23:54:55.160Z,-2.19
2018-12-25T23:57:45.220Z,-2.19
